Time;durP1;ratioP1;P1;durP2;ratioP2;P2;SDS_P1;SDS_P2;PMS_P1;PMS_P2;Temp;Humidity;BMP_temperature;BMP_pressure;BME280_temperature;BME280_humidity;BME280_pressure;Samples;Min_cycle;Max_cycle;Signal;HPM_P1;HPM_P2
2023/05/30 00:01:40;;;;;;;10.02;3.58;;;;;;;;;;5085551;27;20036;-80
2023/05/30 00:04:06;;;;;;;11.38;3.47;;;;;;;;;;5093331;27;20134;-80
2023/05/30 00:06:33;;;;;;;16.02;3.00;;;;;;;;;;5090592;27;20071;-80
2023/05/30 00:09:01;;;;;;;9.93;2.95;;;;;;;;;;5090622;27;21709;-80
2023/05/30 00:11:28;;;;;;;13.15;3.47;;;;;;;;;;5100992;27;20050;-80
2023/05/30 00:13:55;;;;;;;15.32;3.53;;;;;;;;;;5098075;27;20051;-80
2023/05/30 00:16:22;;;;;;;15.90;3.85;;;;;;;;;;5095313;27;20064;-81
2023/05/30 00:18:48;;;;;;;11.15;3.28;;;;;;;;;;5099351;27;20465;-80
2023/05/30 00:21:17;;;;;;;13.85;3.67;;;;;;;;;;5091888;27;20507;-80
2023/05/30 00:23:45;;;;;;;16.17;4.53;;;;;;;;;;5089997;27;20050;-81
2023/05/30 00:26:11;;;;;;;13.88;3.85;;;;;;;;;;5120024;27;20055;-80
2023/05/30 00:28:38;;;;;;;12.57;3.53;;;;;;;;;;5088069;27;20051;-81
2023/05/30 00:31:06;;;;;;;11.68;3.20;;;;;;;;;;5101269;27;20101;-80
2023/05/30 00:33:32;;;;;;;9.60;3.22;;;;;;;;;;5101570;27;20042;-80
2023/05/30 00:35:58;;;;;;;17.20;3.33;;;;;;;;;;5104757;27;21517;-81
2023/05/30 00:38:24;;;;;;;17.25;3.22;;;;;;;;;;5086673;27;20044;-80
2023/05/30 00:40:51;;;;;;;11.77;3.15;;;;;;;;;;5090049;28;20086;-80
2023/05/30 00:43:18;;;;;;;11.68;2.42;;;;;;;;;;5091049;27;20039;-80
2023/05/30 00:45:45;;;;;;;12.30;2.42;;;;;;;;;;5088509;27;20043;-80
2023/05/30 00:48:11;;;;;;;11.07;2.75;;;;;;;;;;5127315;27;20100;-80
2023/05/30 00:50:38;;;;;;;13.88;3.17;;;;;;;;;;5092841;27;20177;-80
2023/05/30 00:53:05;;;;;;;13.48;2.97;;;;;;;;;;5090082;28;20059;-80
2023/05/30 00:55:32;;;;;;;11.73;2.60;;;;;;;;;;5098869;27;20387;-80
2023/05/30 00:57:58;;;;;;;9.95;2.75;;;;;;;;;;5091330;27;20118;-80
2023/05/30 01:00:26;;;;;;;12.80;3.33;;;;;;;;;;5091154;27;20048;-80
2023/05/30 01:02:57;;;;;;;12.35;3.30;;;;;;;;;;5128949;27;20040;-80
2023/05/30 01:05:24;;;;;;;13.13;3.55;;;;;;;;;;5127308;27;20056;-80
2023/05/30 01:07:51;;;;;;;12.60;3.00;;;;;;;;;;5119419;27;20407;-80
2023/05/30 01:10:17;;;;;;;9.13;2.33;;;;;;;;;;5091361;27;20310;-80
2023/05/30 01:12:51;;;;;;;10.02;2.78;;;;;;;;;;5088048;27;20060;-81
2023/05/30 01:15:20;;;;;;;12.60;2.88;;;;;;;;;;5105747;27;20115;-80
2023/05/30 01:18:01;;;;;;;12.15;3.20;;;;;;;;;;5098649;27;20067;-81
2023/05/30 01:20:31;;;;;;;20.10;4.00;;;;;;;;;;5094946;27;20055;-81
2023/05/30 01:23:13;;;;;;;13.38;3.22;;;;;;;;;;5100442;27;20102;-80
2023/05/30 01:25:59;;;;;;;17.05;3.22;;;;;;;;;;5094727;28;20083;-80
2023/05/30 01:28:28;;;;;;;11.85;3.05;;;;;;;;;;5089903;27;20055;-80
2023/05/30 01:30:56;;;;;;;16.75;3.40;;;;;;;;;;5123457;27;20071;-80
2023/05/30 01:33:22;;;;;;;10.95;3.50;;;;;;;;;;5093363;27;20140;-80
2023/05/30 01:35:49;;;;;;;13.98;3.80;;;;;;;;;;5096527;27;20043;-80
2023/05/30 01:38:16;;;;;;;12.77;3.13;;;;;;;;;;5097329;27;20048;-80
2023/05/30 01:40:45;;;;;;;15.98;3.85;;;;;;;;;;5095046;28;20090;-80
2023/05/30 01:43:11;;;;;;;12.07;3.55;;;;;;;;;;5090466;27;20031;-80
2023/05/30 01:45:46;;;;;;;10.93;3.63;;;;;;;;;;5098190;28;20036;-80
2023/05/30 01:48:19;;;;;;;15.18;3.83;;;;;;;;;;5097787;28;20048;-80
2023/05/30 01:50:47;;;;;;;10.50;3.63;;;;;;;;;;5098981;28;20082;-80
2023/05/30 01:53:17;;;;;;;15.10;3.58;;;;;;;;;;5125277;27;20512;-81
2023/05/30 01:55:45;;;;;;;15.57;3.08;;;;;;;;;;5089370;28;20493;-80
2023/05/30 01:58:14;;;;;;;15.68;3.40;;;;;;;;;;5088016;28;20047;-80
2023/05/30 02:00:40;;;;;;;16.40;3.72;;;;;;;;;;5089566;28;20093;-81
2023/05/30 02:03:06;;;;;;;20.20;4.50;;;;;;;;;;5076522;28;20390;-80
2023/05/30 02:05:32;;;;;;;17.88;4.00;;;;;;;;;;5090287;28;20388;-80
2023/05/30 02:07:58;;;;;;;17.83;4.13;;;;;;;;;;5087448;28;20047;-80
2023/05/30 02:10:24;;;;;;;18.58;4.13;;;;;;;;;;5102409;27;20044;-80
2023/05/30 02:12:51;;;;;;;17.42;3.75;;;;;;;;;;5088063;28;20054;-80
2023/05/30 02:15:17;;;;;;;14.57;3.30;;;;;;;;;;5094502;28;20126;-80
2023/05/30 02:17:43;;;;;;;18.45;4.03;;;;;;;;;;5091105;28;20047;-80
2023/05/30 02:20:09;;;;;;;15.05;3.45;;;;;;;;;;5087446;28;20083;-80
2023/05/30 02:22:36;;;;;;;14.75;3.92;;;;;;;;;;5087741;28;20039;-80
2023/05/30 02:25:02;;;;;;;12.50;2.90;;;;;;;;;;5124804;27;20520;-80
2023/05/30 02:27:28;;;;;;;13.93;3.75;;;;;;;;;;5092416;27;20048;-80
2023/05/30 02:29:54;;;;;;;15.20;3.42;;;;;;;;;;5093038;27;20143;-80
2023/05/30 02:32:20;;;;;;;13.85;4.72;;;;;;;;;;5096460;28;20748;-80
2023/05/30 02:34:47;;;;;;;17.30;3.72;;;;;;;;;;5092397;27;20380;-80
2023/05/30 02:37:13;;;;;;;13.25;3.20;;;;;;;;;;5092451;27;20048;-81
2023/05/30 02:39:39;;;;;;;14.52;3.90;;;;;;;;;;5092044;27;20074;-80
2023/05/30 02:42:05;;;;;;;10.10;3.40;;;;;;;;;;5080046;27;20487;-80
2023/05/30 02:44:32;;;;;;;15.40;3.10;;;;;;;;;;5099773;27;20054;-80
2023/05/30 02:46:58;;;;;;;14.35;4.60;;;;;;;;;;5100985;27;20040;-80
2023/05/30 02:49:24;;;;;;;15.57;4.10;;;;;;;;;;5076757;27;20058;-80
2023/05/30 02:51:50;;;;;;;11.25;3.35;;;;;;;;;;5123659;27;20371;-80
2023/05/30 02:54:16;;;;;;;10.73;3.60;;;;;;;;;;5093356;27;20461;-80
2023/05/30 02:56:42;;;;;;;20.23;4.65;;;;;;;;;;5079844;28;20044;-80
2023/05/30 02:59:09;;;;;;;12.02;3.60;;;;;;;;;;5094464;27;20317;-80
2023/05/30 03:01:35;;;;;;;13.52;4.07;;;;;;;;;;5096305;27;20104;-80
2023/05/30 03:04:01;;;;;;;11.95;3.70;;;;;;;;;;5096953;27;20048;-81
2023/05/30 03:06:28;;;;;;;13.73;3.92;;;;;;;;;;5081278;27;20148;-79
2023/05/30 03:08:57;;;;;;;15.13;3.75;;;;;;;;;;5098734;27;20143;-79
2023/05/30 03:11:23;;;;;;;15.27;3.65;;;;;;;;;;5091722;27;20079;-79
2023/05/30 03:13:50;;;;;;;13.25;3.30;;;;;;;;;;5094792;27;20039;-79
2023/05/30 03:16:16;;;;;;;19.52;4.13;;;;;;;;;;5096974;27;20052;-79
2023/05/30 03:18:43;;;;;;;12.57;2.97;;;;;;;;;;5089584;27;20574;-79
2023/05/30 03:21:10;;;;;;;13.35;3.22;;;;;;;;;;5095187;27;21017;-79
2023/05/30 03:23:36;;;;;;;19.58;3.63;;;;;;;;;;5108328;27;20048;-79
2023/05/30 03:26:03;;;;;;;16.05;3.40;;;;;;;;;;5092596;27;20225;-79
2023/05/30 03:28:30;;;;;;;18.35;3.63;;;;;;;;;;5086888;27;20047;-79
2023/05/30 03:30:57;;;;;;;16.75;5.10;;;;;;;;;;5092346;27;20093;-79
2023/05/30 03:33:24;;;;;;;14.25;3.70;;;;;;;;;;5120927;27;20054;-79
2023/05/30 03:35:50;;;;;;;17.52;3.60;;;;;;;;;;5092026;28;20178;-79
2023/05/30 03:38:16;;;;;;;8.30;2.97;;;;;;;;;;5090423;28;20375;-79
2023/05/30 03:40:42;;;;;;;11.90;3.40;;;;;;;;;;5125575;27;21552;-79
2023/05/30 03:43:08;;;;;;;21.60;4.43;;;;;;;;;;5092729;27;20543;-79
2023/05/30 03:45:34;;;;;;;15.45;3.78;;;;;;;;;;5097453;27;20149;-79
2023/05/30 03:48:01;;;;;;;13.30;4.13;;;;;;;;;;5093418;27;20047;-79
2023/05/30 03:50:27;;;;;;;18.75;3.63;;;;;;;;;;5092541;27;20112;-79
2023/05/30 03:52:53;;;;;;;19.25;4.00;;;;;;;;;;5092773;27;20044;-79
2023/05/30 03:55:19;;;;;;;12.48;3.72;;;;;;;;;;5090967;27;20055;-79
2023/05/30 03:57:46;;;;;;;24.08;4.97;;;;;;;;;;5111287;27;20047;-79
2023/05/30 04:00:12;;;;;;;15.95;4.07;;;;;;;;;;5090020;27;20043;-79
2023/05/30 04:02:38;;;;;;;11.93;3.45;;;;;;;;;;5092147;27;20043;-79
2023/05/30 04:05:05;;;;;;;16.98;3.95;;;;;;;;;;5096235;27;20131;-79
2023/05/30 04:07:35;;;;;;;19.30;4.57;;;;;;;;;;5094245;27;20113;-79
2023/05/30 04:10:03;;;;;;;12.90;3.53;;;;;;;;;;5099936;27;20423;-79
2023/05/30 04:12:29;;;;;;;17.17;3.70;;;;;;;;;;5138655;27;20079;-79
2023/05/30 04:14:55;;;;;;;15.05;3.80;;;;;;;;;;5106508;27;20044;-81
2023/05/30 04:17:22;;;;;;;15.65;4.28;;;;;;;;;;5104766;27;20505;-82
2023/05/30 04:19:48;;;;;;;13.82;3.40;;;;;;;;;;5114719;27;20051;-82
2023/05/30 04:22:14;;;;;;;15.05;4.30;;;;;;;;;;5106018;28;20109;-80
2023/05/30 04:24:40;;;;;;;17.60;3.88;;;;;;;;;;5100132;27;20059;-80
2023/05/30 04:27:07;;;;;;;13.02;3.30;;;;;;;;;;5134327;27;20393;-80
2023/05/30 04:29:33;;;;;;;13.80;4.53;;;;;;;;;;5101436;27;20048;-80
2023/05/30 04:31:59;;;;;;;17.23;4.32;;;;;;;;;;5103622;27;20093;-81
2023/05/30 04:34:25;;;;;;;12.00;4.20;;;;;;;;;;5098869;27;20082;-80
2023/05/30 04:36:53;;;;;;;18.45;3.38;;;;;;;;;;5097642;27;20509;-80
2023/05/30 04:39:20;;;;;;;17.30;4.53;;;;;;;;;;5101197;27;20517;-81
2023/05/30 04:41:47;;;;;;;9.13;2.92;;;;;;;;;;5103037;27;20105;-81
2023/05/30 04:44:13;;;;;;;11.23;2.70;;;;;;;;;;5104464;27;21674;-80
2023/05/30 04:46:40;;;;;;;16.40;3.47;;;;;;;;;;5105566;27;20031;-80
2023/05/30 04:49:06;;;;;;;14.40;3.08;;;;;;;;;;5103495;27;20435;-81
2023/05/30 04:51:33;;;;;;;10.38;3.10;;;;;;;;;;5102224;27;20143;-77
2023/05/30 04:54:00;;;;;;;10.25;2.78;;;;;;;;;;5084827;27;20034;-81
2023/05/30 04:56:26;;;;;;;16.75;3.42;;;;;;;;;;5085105;27;20058;-81
2023/05/30 04:58:52;;;;;;;14.48;2.88;;;;;;;;;;5101235;27;20123;-76
2023/05/30 05:01:19;;;;;;;14.50;3.75;;;;;;;;;;5100490;27;20059;-82
2023/05/30 05:03:45;;;;;;;13.43;2.67;;;;;;;;;;5102838;27;20605;-82
2023/05/30 05:06:12;;;;;;;10.70;2.70;;;;;;;;;;5106455;27;20039;-79
2023/05/30 05:08:38;;;;;;;10.27;2.60;;;;;;;;;;5103922;27;20040;-83
2023/05/30 05:11:05;;;;;;;8.55;2.60;;;;;;;;;;5107516;27;20058;-83
2023/05/30 05:13:32;;;;;;;5.55;2.03;;;;;;;;;;5101351;27;20043;-84
2023/05/30 05:15:58;;;;;;;6.78;2.38;;;;;;;;;;5103035;27;20039;-81
2023/05/30 05:18:24;;;;;;;8.77;2.70;;;;;;;;;;5104859;27;20394;-82
2023/05/30 05:20:51;;;;;;;8.90;1.90;;;;;;;;;;5117732;27;20134;-82
2023/05/30 05:23:17;;;;;;;5.53;1.63;;;;;;;;;;5121411;27;20039;-73
2023/05/30 05:25:43;;;;;;;9.35;2.33;;;;;;;;;;5101637;27;20056;-79
2023/05/30 05:28:10;;;;;;;11.65;3.10;;;;;;;;;;5101701;27;20047;-74
2023/05/30 05:30:36;;;;;;;8.05;2.30;;;;;;;;;;5113364;27;20066;-73
2023/05/30 05:33:02;;;;;;;10.25;2.50;;;;;;;;;;5114520;27;20046;-73
2023/05/30 05:35:29;;;;;;;10.38;2.63;;;;;;;;;;5116296;27;20565;-74
2023/05/30 05:37:55;;;;;;;6.55;2.17;;;;;;;;;;5106244;27;20051;-74
2023/05/30 05:40:22;;;;;;;8.52;2.40;;;;;;;;;;5102280;27;20043;-74
2023/05/30 05:42:48;;;;;;;8.13;2.45;;;;;;;;;;5112333;27;20039;-74
2023/05/30 05:45:14;;;;;;;9.90;2.40;;;;;;;;;;5111397;27;20047;-74
2023/05/30 05:47:41;;;;;;;9.90;2.90;;;;;;;;;;5134991;27;20032;-74
2023/05/30 05:50:08;;;;;;;8.88;2.88;;;;;;;;;;5105993;28;20062;-73
2023/05/30 05:52:34;;;;;;;9.63;2.80;;;;;;;;;;5130655;27;20036;-74
2023/05/30 05:55:00;;;;;;;8.00;2.92;;;;;;;;;;5114794;27;20047;-74
2023/05/30 05:57:26;;;;;;;9.50;2.70;;;;;;;;;;5109434;28;20043;-74
2023/05/30 05:59:52;;;;;;;10.68;2.25;;;;;;;;;;5110598;27;20081;-74
2023/05/30 06:02:18;;;;;;;11.60;2.72;;;;;;;;;;5107945;28;20304;-74
2023/05/30 06:04:46;;;;;;;9.27;2.40;;;;;;;;;;5108451;28;20047;-74
2023/05/30 06:07:13;;;;;;;9.05;2.53;;;;;;;;;;5104980;28;20541;-74
2023/05/30 06:09:39;;;;;;;11.07;3.13;;;;;;;;;;5109700;28;20039;-74
2023/05/30 06:12:07;;;;;;;9.43;2.67;;;;;;;;;;5103594;28;20508;-74
2023/05/30 06:14:33;;;;;;;9.23;2.83;;;;;;;;;;5113618;28;20086;-74
2023/05/30 06:16:59;;;;;;;9.73;2.42;;;;;;;;;;5103627;28;20104;-74
2023/05/30 06:19:25;;;;;;;9.80;2.45;;;;;;;;;;5102605;28;20568;-74
2023/05/30 06:21:51;;;;;;;10.43;2.35;;;;;;;;;;5111552;28;20406;-74
2023/05/30 06:24:18;;;;;;;9.15;2.22;;;;;;;;;;5106734;28;20111;-74
2023/05/30 06:26:44;;;;;;;9.65;2.17;;;;;;;;;;5100933;28;20053;-73
2023/05/30 06:29:10;;;;;;;10.07;2.58;;;;;;;;;;5104676;28;20055;-78
2023/05/30 06:31:37;;;;;;;8.48;2.35;;;;;;;;;;5111446;28;20414;-76
2023/05/30 06:34:03;;;;;;;13.88;3.28;;;;;;;;;;5111824;28;20099;-77
2023/05/30 06:36:29;;;;;;;8.63;2.03;;;;;;;;;;5110665;28;20067;-77
2023/05/30 06:38:56;;;;;;;10.75;2.42;;;;;;;;;;5112789;27;20112;-77
2023/05/30 06:41:22;;;;;;;11.90;2.95;;;;;;;;;;5109042;28;20043;-77
2023/05/30 06:43:49;;;;;;;6.32;1.90;;;;;;;;;;5112721;28;20379;-77
2023/05/30 06:46:15;;;;;;;6.50;1.63;;;;;;;;;;5116048;27;20046;-77
2023/05/30 06:48:41;;;;;;;6.72;1.42;;;;;;;;;;5106298;28;20550;-77
2023/05/30 06:51:07;;;;;;;7.35;1.70;;;;;;;;;;5102308;28;20174;-77
2023/05/30 06:53:34;;;;;;;6.07;2.03;;;;;;;;;;5105387;28;20048;-77
2023/05/30 06:56:00;;;;;;;5.55;1.45;;;;;;;;;;5111037;28;20149;-77
2023/05/30 06:58:27;;;;;;;4.78;2.00;;;;;;;;;;5151599;27;20479;-77
2023/05/30 07:00:53;;;;;;;6.25;1.70;;;;;;;;;;5111672;28;20506;-77
2023/05/30 07:03:19;;;;;;;6.25;1.90;;;;;;;;;;5105394;28;20036;-77
2023/05/30 07:05:45;;;;;;;8.93;2.15;;;;;;;;;;5110127;28;20058;-77
2023/05/30 07:08:11;;;;;;;6.82;2.20;;;;;;;;;;5106340;28;20047;-77
2023/05/30 07:10:37;;;;;;;8.40;2.25;;;;;;;;;;5089804;27;20048;-76
2023/05/30 07:13:04;;;;;;;11.65;2.28;;;;;;;;;;5110045;27;20143;-77
2023/05/30 07:15:31;;;;;;;7.15;2.15;;;;;;;;;;5106031;27;20051;-77
2023/05/30 07:17:57;;;;;;;6.57;2.17;;;;;;;;;;5107073;27;20046;-78
2023/05/30 07:20:23;;;;;;;7.78;2.25;;;;;;;;;;5106141;27;20255;-75
2023/05/30 07:22:50;;;;;;;8.93;2.67;;;;;;;;;;5110578;27;20044;-77
2023/05/30 07:25:17;;;;;;;5.28;2.33;;;;;;;;;;5110950;27;20043;-77
2023/05/30 07:27:43;;;;;;;5.68;2.00;;;;;;;;;;5117625;27;20077;-78
2023/05/30 07:30:09;;;;;;;6.90;1.95;;;;;;;;;;5126241;27;20047;-77
2023/05/30 07:32:35;;;;;;;8.68;1.90;;;;;;;;;;5115884;27;20043;-76
2023/05/30 07:35:01;;;;;;;7.25;2.28;;;;;;;;;;5111916;27;20071;-77
2023/05/30 07:37:27;;;;;;;5.18;1.75;;;;;;;;;;5115747;27;20044;-78
2023/05/30 07:39:54;;;;;;;5.60;1.70;;;;;;;;;;5114172;27;20057;-77
2023/05/30 07:42:21;;;;;;;9.52;2.08;;;;;;;;;;5108431;27;20038;-77
2023/05/30 07:44:48;;;;;;;5.82;2.15;;;;;;;;;;5105416;27;20051;-78
2023/05/30 07:47:15;;;;;;;3.92;1.77;;;;;;;;;;5108732;27;20050;-78
2023/05/30 07:49:42;;;;;;;4.93;1.70;;;;;;;;;;5115136;27;20048;-79
2023/05/30 07:52:09;;;;;;;7.20;1.65;;;;;;;;;;5116875;27;20376;-78
2023/05/30 07:54:35;;;;;;;7.60;1.77;;;;;;;;;;5110263;27;20583;-78
2023/05/30 07:57:01;;;;;;;4.20;1.77;;;;;;;;;;5109774;27;20044;-77
2023/05/30 07:59:28;;;;;;;4.03;1.77;;;;;;;;;;5113428;27;20410;-78
2023/05/30 08:01:54;;;;;;;5.60;1.70;;;;;;;;;;5108683;27;20054;-76
2023/05/30 08:04:20;;;;;;;3.33;1.08;;;;;;;;;;5108851;27;20043;-77
2023/05/30 08:06:46;;;;;;;5.45;0.80;;;;;;;;;;5115943;27;20042;-77
2023/05/30 08:09:12;;;;;;;3.38;0.70;;;;;;;;;;5115882;27;20047;-77
2023/05/30 08:11:39;;;;;;;2.90;0.80;;;;;;;;;;5112798;27;20051;-77
2023/05/30 08:14:05;;;;;;;4.43;0.80;;;;;;;;;;5110963;27;20051;-77
2023/05/30 08:16:32;;;;;;;5.10;0.70;;;;;;;;;;5117773;27;20079;-77
2023/05/30 08:18:58;;;;;;;1.50;0.50;;;;;;;;;;5117292;27;21903;-77
2023/05/30 08:21:25;;;;;;;1.38;0.60;;;;;;;;;;5109375;27;20043;-78
2023/05/30 08:23:51;;;;;;;2.58;0.38;;;;;;;;;;5100439;27;20051;-80
2023/05/30 08:26:18;;;;;;;1.17;0.50;;;;;;;;;;5103824;27;20108;-80
2023/05/30 08:28:45;;;;;;;1.38;0.40;;;;;;;;;;5100209;27;20059;-80
2023/05/30 08:31:11;;;;;;;1.83;0.60;;;;;;;;;;5084073;27;20043;-80
2023/05/30 08:33:37;;;;;;;1.58;0.60;;;;;;;;;;5103971;27;20062;-80
2023/05/30 08:36:03;;;;;;;1.58;0.47;;;;;;;;;;5106086;27;20465;-80
2023/05/30 08:38:31;;;;;;;4.78;0.85;;;;;;;;;;5104100;27;20452;-81
2023/05/30 08:40:57;;;;;;;4.32;1.98;;;;;;;;;;5103035;27;20055;-80
2023/05/30 08:43:23;;;;;;;2.42;1.00;;;;;;;;;;5104332;27;20063;-81
2023/05/30 08:45:53;;;;;;;2.63;0.95;;;;;;;;;;5107359;27;20550;-80
2023/05/30 08:48:20;;;;;;;3.50;1.15;;;;;;;;;;5111841;27;20122;-80
2023/05/30 08:50:47;;;;;;;6.25;1.38;;;;;;;;;;5108421;27;20058;-80
2023/05/30 08:53:13;;;;;;;5.28;1.02;;;;;;;;;;5104445;27;20655;-80
2023/05/30 08:55:44;;;;;;;1.58;0.80;;;;;;;;;;5105009;27;20381;-80
2023/05/30 08:58:13;;;;;;;2.05;0.70;;;;;;;;;;5099876;27;20077;-80
2023/05/30 09:00:39;;;;;;;1.65;0.50;;;;;;;;;;5105353;27;20078;-80
2023/05/30 09:03:06;;;;;;;2.22;0.80;;;;;;;;;;5104145;27;20039;-81
2023/05/30 09:05:35;;;;;;;0.95;0.40;;;;;;;;;;5102365;27;20518;-81
2023/05/30 09:08:02;;;;;;;0.90;0.43;;;;;;;;;;5136079;27;20039;-81
2023/05/30 09:10:29;;;;;;;2.42;0.90;;;;;;;;;;5104850;27;20087;-81
2023/05/30 09:12:56;;;;;;;3.22;0.88;;;;;;;;;;5108130;27;20585;-81
2023/05/30 09:15:22;;;;;;;3.22;0.82;;;;;;;;;;5108210;27;20055;-80
2023/05/30 09:17:48;;;;;;;2.05;0.70;;;;;;;;;;5111546;27;20040;-81
2023/05/30 09:20:17;;;;;;;1.42;0.80;;;;;;;;;;5100788;27;20529;-81
2023/05/30 09:22:45;;;;;;;1.63;0.60;;;;;;;;;;5100520;27;20065;-80
2023/05/30 09:25:14;;;;;;;1.15;0.68;;;;;;;;;;5102949;27;20044;-80
2023/05/30 09:27:41;;;;;;;2.25;0.80;;;;;;;;;;5103012;27;20052;-81
2023/05/30 09:30:08;;;;;;;1.10;0.50;;;;;;;;;;5100683;27;21729;-80
2023/05/30 09:32:36;;;;;;;1.83;1.00;;;;;;;;;;5103869;27;20166;-81
2023/05/30 09:35:05;;;;;;;1.65;0.80;;;;;;;;;;5101921;28;20054;-80
2023/05/30 09:37:41;;;;;;;1.13;0.57;;;;;;;;;;5102177;27;20039;-81
2023/05/30 09:40:13;;;;;;;1.75;0.70;;;;;;;;;;5095806;28;20458;-80
2023/05/30 09:42:39;;;;;;;2.55;0.68;;;;;;;;;;5103617;27;20043;-80
2023/05/30 09:45:07;;;;;;;1.73;0.52;;;;;;;;;;5105267;27;20084;-81
2023/05/30 09:47:39;;;;;;;1.80;0.88;;;;;;;;;;5103715;28;20048;-81
2023/05/30 09:50:06;;;;;;;1.98;0.70;;;;;;;;;;5088729;28;20088;-81
2023/05/30 09:52:32;;;;;;;1.80;0.82;;;;;;;;;;5104935;28;20385;-80
2023/05/30 09:55:00;;;;;;;1.52;0.70;;;;;;;;;;5102943;27;20054;-81
2023/05/30 09:57:27;;;;;;;1.65;0.60;;;;;;;;;;5100744;28;20996;-81
2023/05/30 09:59:53;;;;;;;1.65;0.52;;;;;;;;;;5101656;28;20040;-81
2023/05/30 10:02:23;;;;;;;2.42;0.93;;;;;;;;;;5110066;27;20067;-81
2023/05/30 10:04:53;;;;;;;1.45;0.73;;;;;;;;;;5097991;28;20054;-80
2023/05/30 10:07:20;;;;;;;2.55;0.73;;;;;;;;;;5105368;28;20027;-78
2023/05/30 10:09:49;;;;;;;1.73;0.70;;;;;;;;;;5102888;28;20065;-79
2023/05/30 10:12:16;;;;;;;5.32;1.00;;;;;;;;;;5100428;28;20394;-79
2023/05/30 10:14:43;;;;;;;3.25;1.00;;;;;;;;;;5101534;28;20081;-78
2023/05/30 10:17:16;;;;;;;3.80;1.10;;;;;;;;;;5099981;28;20051;-78
2023/05/30 10:19:49;;;;;;;5.27;1.53;;;;;;;;;;5134502;27;20047;-78
2023/05/30 10:22:15;;;;;;;4.17;0.90;;;;;;;;;;5126044;27;20083;-77
2023/05/30 10:24:43;;;;;;;2.20;1.00;;;;;;;;;;5127018;27;20047;-79
2023/05/30 10:27:11;;;;;;;2.25;0.95;;;;;;;;;;5100214;28;20059;-79
2023/05/30 10:29:43;;;;;;;1.40;0.60;;;;;;;;;;5100408;28;20052;-78
2023/05/30 10:32:10;;;;;;;2.72;0.70;;;;;;;;;;5103663;28;20055;-78
2023/05/30 10:34:42;;;;;;;1.52;0.50;;;;;;;;;;5103449;28;20051;-79
2023/05/30 10:37:09;;;;;;;1.90;0.60;;;;;;;;;;5101046;28;20044;-78
2023/05/30 10:39:36;;;;;;;1.50;0.43;;;;;;;;;;5102164;28;20071;-78
2023/05/30 10:42:05;;;;;;;1.42;0.50;;;;;;;;;;5115908;27;20044;-80
2023/05/30 10:44:36;;;;;;;2.80;0.80;;;;;;;;;;5101782;28;20518;-79
2023/05/30 10:47:03;;;;;;;1.88;0.82;;;;;;;;;;5104453;27;20047;-77
2023/05/30 10:49:29;;;;;;;2.40;0.95;;;;;;;;;;5105346;27;20138;-78
2023/05/30 10:52:04;;;;;;;6.13;1.00;;;;;;;;;;5107558;27;20570;-79
2023/05/30 10:54:31;;;;;;;3.72;1.33;;;;;;;;;;5114622;27;20047;-79
2023/05/30 10:56:58;;;;;;;1.65;0.70;;;;;;;;;;5104883;27;20047;-77
2023/05/30 10:59:24;;;;;;;2.80;1.10;;;;;;;;;;5104089;27;20507;-78
2023/05/30 11:02:02;;;;;;;5.85;0.80;;;;;;;;;;5102522;27;20043;-75
2023/05/30 11:04:30;;;;;;;2.05;0.80;;;;;;;;;;5105673;27;20048;-75
2023/05/30 11:06:57;;;;;;;2.70;0.82;;;;;;;;;;5106104;27;20115;-75
2023/05/30 11:09:23;;;;;;;6.00;1.13;;;;;;;;;;5103933;27;20115;-75
2023/05/30 11:11:53;;;;;;;3.15;1.20;;;;;;;;;;5098885;27;20079;-75
2023/05/30 11:14:24;;;;;;;3.90;0.93;;;;;;;;;;5137423;27;20547;-76
2023/05/30 11:16:55;;;;;;;3.17;1.30;;;;;;;;;;5101222;27;20130;-74
2023/05/30 11:19:36;;;;;;;3.42;0.90;;;;;;;;;;5101790;27;20104;-75
2023/05/30 11:22:03;;;;;;;1.50;0.90;;;;;;;;;;5116721;27;20043;-75
2023/05/30 11:24:30;;;;;;;1.50;0.70;;;;;;;;;;5106684;27;20051;-76
2023/05/30 11:26:58;;;;;;;2.00;0.70;;;;;;;;;;5120012;27;20086;-76
2023/05/30 11:29:29;;;;;;;2.38;0.85;;;;;;;;;;5121487;27;20433;-77
2023/05/30 11:31:56;;;;;;;1.75;0.75;;;;;;;;;;5088211;28;20280;-79
2023/05/30 11:34:22;;;;;;;1.88;0.93;;;;;;;;;;5103837;27;20059;-76
2023/05/30 11:36:49;;;;;;;1.38;0.68;;;;;;;;;;5101523;27;20122;-75
2023/05/30 11:39:18;;;;;;;0.75;0.43;;;;;;;;;;5104291;27;20391;-83
2023/05/30 11:41:45;;;;;;;0.60;0.30;;;;;;;;;;5103629;27;20051;-82
2023/05/30 11:44:11;;;;;;;1.08;0.50;;;;;;;;;;5102016;27;20151;-78
2023/05/30 11:46:37;;;;;;;2.28;0.90;;;;;;;;;;5104171;27;20152;-78
2023/05/30 11:49:05;;;;;;;4.60;0.82;;;;;;;;;;5137736;27;20672;-78
2023/05/30 11:51:31;;;;;;;1.88;0.70;;;;;;;;;;5136144;27;20056;-80
2023/05/30 11:53:59;;;;;;;1.98;0.82;;;;;;;;;;5106147;27;20087;-80
2023/05/30 11:56:29;;;;;;;3.28;1.35;;;;;;;;;;5102826;27;20048;-79
2023/05/30 11:58:55;;;;;;;2.03;0.70;;;;;;;;;;5104886;27;20379;-78
2023/05/30 12:01:23;;;;;;;1.90;0.80;;;;;;;;;;5104889;27;20044;-74
2023/05/30 12:03:49;;;;;;;2.60;0.90;;;;;;;;;;5102189;27;20117;-76
2023/05/30 12:06:15;;;;;;;2.42;0.70;;;;;;;;;;5115314;27;20399;-73
2023/05/30 12:08:42;;;;;;;3.20;1.00;;;;;;;;;;5120955;27;20063;-73
2023/05/30 12:11:12;;;;;;;4.35;0.80;;;;;;;;;;5108448;27;20047;-72
2023/05/30 12:13:38;;;;;;;2.40;0.80;;;;;;;;;;5118070;27;20124;-73
2023/05/30 12:16:04;;;;;;;11.57;1.27;;;;;;;;;;5109922;27;20066;-73
2023/05/30 12:18:32;;;;;;;2.55;0.95;;;;;;;;;;5109505;27;20382;-73
2023/05/30 12:21:01;;;;;;;3.80;1.40;;;;;;;;;;5109037;27;20054;-73
2023/05/30 12:23:27;;;;;;;1.95;1.00;;;;;;;;;;5113983;27;20177;-72
2023/05/30 12:25:54;;;;;;;4.55;1.10;;;;;;;;;;5116291;27;20054;-73
2023/05/30 12:28:21;;;;;;;3.25;1.20;;;;;;;;;;5111297;27;20051;-73
2023/05/30 12:30:48;;;;;;;2.78;1.10;;;;;;;;;;5107878;27;20051;-73
2023/05/30 12:33:16;;;;;;;3.40;1.20;;;;;;;;;;5114434;27;20070;-72
2023/05/30 12:35:42;;;;;;;3.47;1.17;;;;;;;;;;5107543;27;20052;-73
2023/05/30 12:38:09;;;;;;;5.25;1.40;;;;;;;;;;5110988;27;20047;-73
2023/05/30 12:40:35;;;;;;;3.58;1.42;;;;;;;;;;5103628;27;20104;-73
2023/05/30 12:43:01;;;;;;;3.08;1.20;;;;;;;;;;5144179;27;20035;-73
2023/05/30 12:45:27;;;;;;;4.70;1.08;;;;;;;;;;5111911;27;20126;-73
2023/05/30 12:47:54;;;;;;;4.13;1.10;;;;;;;;;;5109234;27;20050;-73
2023/05/30 12:50:20;;;;;;;3.00;0.93;;;;;;;;;;5129717;27;20043;-73
2023/05/30 12:52:46;;;;;;;2.53;1.08;;;;;;;;;;5110629;27;20051;-73
2023/05/30 12:55:12;;;;;;;4.15;1.20;;;;;;;;;;5110487;27;20048;-73
2023/05/30 12:57:38;;;;;;;2.00;0.95;;;;;;;;;;5112420;27;20047;-73
2023/05/30 13:00:05;;;;;;;1.85;0.80;;;;;;;;;;5104282;27;20039;-73
2023/05/30 13:02:31;;;;;;;2.60;1.00;;;;;;;;;;5103894;27;20084;-73
2023/05/30 13:04:58;;;;;;;1.35;0.70;;;;;;;;;;5119420;27;20047;-73
2023/05/30 13:07:24;;;;;;;1.85;0.77;;;;;;;;;;5114934;27;20039;-73
2023/05/30 13:09:50;;;;;;;3.88;0.75;;;;;;;;;;5108818;27;21671;-73
2023/05/30 13:12:16;;;;;;;2.03;0.73;;;;;;;;;;5117660;27;20440;-73
2023/05/30 13:14:43;;;;;;;2.90;0.80;;;;;;;;;;5103388;27;20075;-73
2023/05/30 13:17:09;;;;;;;1.90;0.75;;;;;;;;;;5109929;27;20054;-73
2023/05/30 13:19:36;;;;;;;2.10;0.70;;;;;;;;;;5111340;27;20100;-73
2023/05/30 13:22:03;;;;;;;1.48;0.60;;;;;;;;;;5107142;27;20052;-73
2023/05/30 13:24:30;;;;;;;3.28;0.80;;;;;;;;;;5108386;27;20035;-73
2023/05/30 13:26:57;;;;;;;2.28;0.90;;;;;;;;;;5104808;27;20103;-73
2023/05/30 13:29:23;;;;;;;2.03;0.95;;;;;;;;;;5105150;27;20059;-73
2023/05/30 13:31:49;;;;;;;3.22;1.10;;;;;;;;;;5108003;27;21560;-73
2023/05/30 13:34:16;;;;;;;3.90;0.90;;;;;;;;;;5107300;27;20040;-73
2023/05/30 13:36:43;;;;;;;2.70;1.33;;;;;;;;;;5106579;28;20540;-73
2023/05/30 13:39:09;;;;;;;3.38;1.17;;;;;;;;;;5106173;27;20043;-73
2023/05/30 13:41:36;;;;;;;3.78;1.00;;;;;;;;;;5110347;27;20391;-73
2023/05/30 13:44:02;;;;;;;3.05;1.05;;;;;;;;;;5113004;27;20248;-73
2023/05/30 13:46:29;;;;;;;3.38;1.23;;;;;;;;;;5111423;27;20086;-73
2023/05/30 13:48:55;;;;;;;2.72;1.20;;;;;;;;;;5119297;27;20046;-73
2023/05/30 13:51:21;;;;;;;3.97;1.20;;;;;;;;;;5107964;28;20059;-73
2023/05/30 13:53:48;;;;;;;6.22;1.40;;;;;;;;;;5108486;27;20122;-73
2023/05/30 13:56:16;;;;;;;4.22;1.00;;;;;;;;;;5115349;27;20046;-73
2023/05/30 13:58:42;;;;;;;3.10;1.02;;;;;;;;;;5141375;27;20065;-73
2023/05/30 14:01:09;;;;;;;2.60;0.85;;;;;;;;;;5109555;28;20097;-73
2023/05/30 14:03:36;;;;;;;2.45;0.90;;;;;;;;;;5106231;28;20501;-73
2023/05/30 14:06:03;;;;;;;2.08;0.90;;;;;;;;;;5104515;28;20055;-73
2023/05/30 14:08:30;;;;;;;3.60;1.02;;;;;;;;;;5106261;28;20106;-77
2023/05/30 14:10:56;;;;;;;3.63;1.05;;;;;;;;;;5108087;28;20039;-73
2023/05/30 14:13:24;;;;;;;4.40;1.20;;;;;;;;;;5105624;28;20055;-72
2023/05/30 14:15:50;;;;;;;5.97;1.35;;;;;;;;;;5105881;28;20071;-75
2023/05/30 14:18:16;;;;;;;3.78;1.17;;;;;;;;;;5117110;28;20538;-73
2023/05/30 14:20:42;;;;;;;4.60;1.17;;;;;;;;;;5113913;27;20062;-73
2023/05/30 14:23:09;;;;;;;3.78;1.42;;;;;;;;;;5114300;27;20126;-74
2023/05/30 14:25:35;;;;;;;2.88;1.08;;;;;;;;;;5113210;27;20508;-74
2023/05/30 14:28:02;;;;;;;2.05;0.93;;;;;;;;;;5112223;27;20039;-73
2023/05/30 14:30:29;;;;;;;2.72;1.10;;;;;;;;;;5112691;27;20056;-74
2023/05/30 14:32:55;;;;;;;2.50;0.90;;;;;;;;;;5105516;27;20089;-73
2023/05/30 14:35:22;;;;;;;3.80;1.08;;;;;;;;;;5105641;27;20049;-73
2023/05/30 14:37:48;;;;;;;3.47;1.08;;;;;;;;;;5105645;27;20083;-74